createdAt,value
2023-05-06T00:01:23.079Z,13.80
2023-05-06T00:03:51.575Z,11.80
2023-05-06T00:06:19.759Z,15.90
2023-05-06T00:08:47.746Z,12.90
2023-05-06T00:11:15.725Z,13.60
2023-05-06T00:13:43.487Z,14.60
2023-05-06T00:16:11.383Z,15.70
2023-05-06T00:18:39.368Z,12.30
2023-05-06T00:21:07.259Z,12.90
2023-05-06T00:23:35.222Z,13.20
2023-05-06T00:26:03.216Z,13.70
2023-05-06T00:28:31.032Z,15.40
2023-05-06T00:30:58.918Z,14.00
2023-05-06T00:33:27.014Z,14.30
2023-05-06T00:35:54.901Z,13.90
2023-05-06T00:38:23.450Z,12.00
2023-05-06T00:40:51.320Z,16.10
2023-05-06T00:43:19.197Z,12.70
2023-05-06T00:45:48.542Z,14.60
2023-05-06T00:48:16.818Z,12.40
2023-05-06T00:50:45.918Z,13.20
2023-05-06T00:53:14.152Z,17.80
2023-05-06T00:55:42.223Z,17.40
2023-05-06T00:58:10.253Z,13.40
2023-05-06T01:00:38.692Z,15.20
2023-05-06T01:03:06.604Z,15.70
2023-05-06T01:05:47.717Z,14.40
2023-05-06T01:08:51.894Z,15.30
2023-05-06T01:11:34.111Z,16.00
2023-05-06T01:14:36.352Z,17.10
2023-05-06T01:17:08.130Z,17.20
2023-05-06T01:19:43.205Z,17.30
2023-05-06T01:22:13.128Z,17.80
2023-05-06T01:24:43.181Z,20.20
2023-05-06T01:27:13.073Z,17.20
2023-05-06T01:29:43.606Z,19.50
2023-05-06T01:32:50.954Z,16.60
2023-05-06T01:35:36.422Z,17.30
2023-05-06T01:38:24.280Z,18.70
2023-05-06T01:40:55.691Z,21.40
2023-05-06T01:43:28.341Z,21.20
2023-05-06T01:45:57.272Z,20.70
2023-05-06T01:48:28.236Z,19.70
2023-05-06T01:50:56.800Z,22.80
2023-05-06T01:53:24.661Z,20.00
2023-05-06T01:55:52.694Z,25.30
2023-05-06T01:58:20.604Z,21.10
2023-05-06T02:00:48.449Z,22.30
2023-05-06T02:03:16.578Z,27.60
2023-05-06T02:05:44.541Z,20.80
2023-05-06T02:08:12.390Z,20.80
2023-05-06T02:10:40.746Z,21.30
2023-05-06T02:13:10.891Z,24.20
2023-05-06T02:15:39.041Z,23.50
2023-05-06T02:18:07.086Z,20.00
2023-05-06T02:20:35.287Z,23.80
2023-05-06T02:23:03.018Z,27.30
2023-05-06T02:25:31.517Z,26.00
2023-05-06T02:27:59.400Z,23.60
2023-05-06T02:30:27.309Z,24.80
2023-05-06T02:32:55.221Z,20.30
2023-05-06T02:35:23.834Z,26.00
2023-05-06T02:37:51.690Z,24.30
2023-05-06T02:40:19.461Z,24.90
2023-05-06T02:42:47.458Z,24.20
2023-05-06T02:45:15.363Z,24.90
2023-05-06T02:47:43.249Z,27.80
2023-05-06T02:50:11.377Z,25.90
2023-05-06T02:52:39.399Z,27.60
2023-05-06T02:55:07.599Z,21.50
2023-05-06T02:57:35.677Z,25.60
2023-05-06T03:00:06.298Z,22.70
2023-05-06T03:02:34.302Z,26.20
2023-05-06T03:05:04.512Z,24.60
2023-05-06T03:07:32.458Z,21.20
2023-05-06T03:10:00.497Z,23.10
2023-05-06T03:12:28.387Z,24.50
2023-05-06T03:14:56.290Z,25.40
2023-05-06T03:17:24.150Z,20.10
2023-05-06T03:19:52.207Z,20.70
2023-05-06T03:22:20.087Z,26.20
2023-05-06T03:24:47.977Z,26.70
2023-05-06T03:27:15.913Z,26.70
2023-05-06T03:29:43.674Z,23.80
2023-05-06T03:32:11.654Z,26.60
2023-05-06T03:34:39.527Z,19.10
2023-05-06T03:37:07.427Z,20.50
2023-05-06T03:39:35.229Z,18.90
2023-05-06T03:42:03.244Z,24.70
2023-05-06T03:44:31.173Z,19.20
2023-05-06T03:46:58.897Z,18.40
2023-05-06T03:49:26.749Z,19.10
2023-05-06T03:51:54.597Z,22.80
2023-05-06T03:54:23.015Z,19.30
2023-05-06T03:56:51.000Z,20.20
2023-05-06T03:59:18.677Z,18.50
2023-05-06T04:01:46.863Z,17.90
2023-05-06T04:04:14.872Z,21.20
2023-05-06T04:06:43.345Z,18.00
2023-05-06T04:09:11.156Z,19.30
2023-05-06T04:11:39.457Z,18.60
2023-05-06T04:14:07.856Z,18.60
2023-05-06T04:16:35.982Z,16.80
2023-05-06T04:19:06.495Z,17.80
2023-05-06T04:21:34.677Z,15.10
2023-05-06T04:24:02.886Z,18.20
2023-05-06T04:26:31.484Z,18.60
2023-05-06T04:28:59.335Z,16.60
2023-05-06T04:31:28.439Z,16.80
2023-05-06T04:33:56.290Z,16.40
2023-05-06T04:36:24.105Z,13.80
2023-05-06T04:38:53.278Z,18.40
2023-05-06T04:41:22.241Z,19.90
2023-05-06T04:43:50.061Z,18.70
2023-05-06T04:46:18.000Z,14.00
2023-05-06T04:48:45.924Z,16.00
2023-05-06T04:51:13.848Z,13.50
2023-05-06T04:53:41.718Z,17.50
2023-05-06T04:56:09.510Z,15.60
2023-05-06T04:58:37.307Z,16.50
2023-05-06T05:01:08.974Z,16.70
2023-05-06T05:03:37.015Z,16.90
2023-05-06T05:06:05.274Z,19.40
2023-05-06T05:08:33.252Z,17.20
2023-05-06T05:11:01.096Z,15.30
2023-05-06T05:13:29.822Z,16.50
2023-05-06T05:15:57.738Z,20.40
2023-05-06T05:18:25.687Z,18.00
2023-05-06T05:20:53.591Z,18.80
2023-05-06T05:23:21.383Z,13.90
2023-05-06T05:25:49.270Z,18.60
2023-05-06T05:28:17.184Z,20.00
2023-05-06T05:30:57.395Z,16.70
2023-05-06T05:33:27.691Z,16.40
2023-05-06T05:35:55.761Z,19.30
2023-05-06T05:38:23.606Z,16.40
2023-05-06T05:40:51.723Z,20.00
2023-05-06T05:43:21.559Z,17.50
2023-05-06T05:45:49.342Z,18.20
2023-05-06T05:48:17.278Z,14.00
2023-05-06T05:50:45.982Z,14.90
2023-05-06T05:53:13.794Z,15.10
2023-05-06T05:55:41.620Z,15.40
2023-05-06T05:58:12.908Z,15.40
2023-05-06T06:00:40.904Z,22.90
2023-05-06T06:03:09.340Z,16.90
2023-05-06T06:05:37.667Z,19.50
2023-05-06T06:08:05.631Z,17.00
2023-05-06T06:10:33.494Z,20.40
2023-05-06T06:13:01.412Z,20.70
2023-05-06T06:15:29.521Z,21.90
2023-05-06T06:17:57.409Z,21.00
2023-05-06T06:20:25.426Z,20.10
2023-05-06T06:22:53.394Z,22.10
2023-05-06T06:25:21.694Z,21.20
2023-05-06T06:27:49.498Z,24.20
2023-05-06T06:30:17.485Z,24.90
2023-05-06T06:32:51.372Z,27.10
2023-05-06T06:35:23.928Z,24.70
2023-05-06T06:37:51.779Z,24.30
2023-05-06T06:40:20.214Z,24.70
2023-05-06T06:42:48.318Z,29.90
2023-05-06T06:45:16.464Z,26.40
2023-05-06T06:47:44.397Z,25.20
2023-05-06T06:50:12.474Z,27.30
2023-05-06T06:52:40.587Z,25.50
2023-05-06T06:55:09.496Z,24.30
2023-05-06T06:57:39.262Z,24.10
2023-05-06T07:00:07.735Z,21.90
2023-05-06T07:02:35.696Z,23.50
2023-05-06T07:05:04.383Z,25.00
2023-05-06T07:07:32.612Z,25.10
2023-05-06T07:10:00.364Z,19.00
2023-05-06T07:12:28.686Z,23.10
2023-05-06T07:14:56.530Z,23.50
2023-05-06T07:17:24.380Z,20.40
2023-05-06T07:19:52.208Z,16.80
2023-05-06T07:22:20.360Z,16.30
2023-05-06T07:24:48.158Z,22.30
2023-05-06T07:27:16.154Z,14.60
2023-05-06T07:29:44.085Z,26.00
2023-05-06T07:32:12.181Z,22.00
2023-05-06T07:34:40.074Z,16.10
2023-05-06T07:37:08.368Z,14.20
2023-05-06T07:39:36.311Z,10.00
2023-05-06T07:42:04.090Z,10.10
2023-05-06T07:44:31.928Z,12.30
2023-05-06T07:46:59.950Z,8.80
2023-05-06T07:49:30.603Z,8.30
2023-05-06T07:51:58.855Z,11.70
2023-05-06T07:54:26.752Z,14.80
2023-05-06T07:56:54.566Z,10.30
2023-05-06T07:59:22.501Z,9.30
2023-05-06T08:01:50.578Z,12.40
2023-05-06T08:04:18.473Z,10.20
2023-05-06T08:06:46.816Z,10.30
2023-05-06T08:09:22.377Z,11.10
2023-05-06T08:11:51.274Z,11.80
2023-05-06T08:14:19.128Z,12.20
2023-05-06T08:16:47.095Z,14.60
2023-05-06T08:19:15.076Z,12.40
2023-05-06T08:21:42.935Z,13.40
2023-05-06T08:24:11.222Z,13.20
2023-05-06T08:26:39.439Z,15.90
2023-05-06T08:29:08.149Z,9.90
2023-05-06T08:31:36.085Z,13.30
2023-05-06T08:34:04.062Z,13.60
2023-05-06T08:36:32.308Z,10.10
2023-05-06T08:39:00.718Z,10.60
2023-05-06T08:41:30.645Z,7.90
2023-05-06T08:44:01.197Z,10.60
2023-05-06T08:46:31.119Z,11.10
2023-05-06T08:48:59.906Z,10.90
2023-05-06T08:51:30.250Z,12.40
2023-05-06T08:54:01.430Z,10.10
2023-05-06T08:56:32.921Z,10.50
2023-05-06T08:59:01.559Z,11.80
2023-05-06T09:01:29.629Z,12.90
2023-05-06T09:03:59.468Z,8.80
2023-05-06T09:06:27.467Z,8.70
2023-05-06T09:08:55.731Z,11.50
2023-05-06T09:11:26.751Z,11.80
2023-05-06T09:14:14.582Z,11.90
2023-05-06T09:16:48.106Z,9.00
2023-05-06T09:21:46.788Z,13.70
2023-05-06T09:24:16.779Z,12.90
2023-05-06T09:26:46.462Z,8.30
2023-05-06T09:29:14.580Z,9.70
2023-05-06T09:31:45.338Z,7.20
2023-05-06T09:34:14.557Z,9.50
2023-05-06T09:36:42.446Z,8.20
2023-05-06T09:39:10.457Z,9.10
2023-05-06T09:41:38.848Z,8.10
2023-05-06T09:44:06.931Z,10.20
2023-05-06T09:46:34.991Z,11.40
2023-05-06T09:49:03.020Z,11.90
2023-05-06T09:51:31.165Z,8.50
2023-05-06T09:54:00.850Z,7.40
2023-05-06T09:56:30.484Z,9.40
2023-05-06T09:59:01.532Z,8.60
2023-05-06T10:01:36.515Z,9.30
2023-05-06T10:04:08.699Z,9.00
2023-05-06T10:06:39.769Z,8.10
2023-05-06T10:09:11.084Z,7.60
2023-05-06T10:11:39.413Z,8.70
2023-05-06T10:14:08.023Z,9.80
2023-05-06T10:16:37.194Z,7.70
2023-05-06T10:19:09.404Z,8.50
2023-05-06T10:21:44.798Z,8.10
2023-05-06T10:24:16.581Z,9.70
2023-05-06T10:26:46.752Z,9.00
2023-05-06T10:29:15.174Z,8.20
2023-05-06T10:31:54.522Z,8.80
2023-05-06T10:34:24.497Z,7.90
2023-05-06T10:36:57.622Z,5.20
2023-05-06T10:39:26.646Z,5.10
2023-05-06T10:41:54.727Z,11.70
2023-05-06T10:45:04.857Z,8.20
2023-05-06T10:47:57.876Z,7.10
2023-05-06T10:50:27.461Z,6.80
2023-05-06T10:52:57.459Z,9.00
2023-05-06T10:55:26.793Z,7.10
2023-05-06T10:58:15.960Z,8.60
2023-05-06T11:00:55.155Z,5.30
2023-05-06T11:03:24.281Z,7.40
2023-05-06T11:05:52.749Z,8.70
2023-05-06T11:08:26.924Z,8.10
2023-05-06T11:10:54.988Z,6.70
2023-05-06T11:13:26.574Z,4.40
2023-05-06T11:15:56.574Z,5.80
2023-05-06T11:18:25.243Z,8.40
2023-05-06T11:21:05.283Z,8.50
2023-05-06T11:23:42.139Z,7.70
2023-05-06T11:26:10.747Z,6.90
2023-05-06T11:28:47.152Z,5.10
2023-05-06T11:31:15.820Z,7.20
2023-05-06T11:33:55.275Z,12.40
2023-05-06T11:36:23.244Z,7.20
2023-05-06T11:38:56.367Z,5.80
2023-05-06T11:41:24.675Z,6.00
2023-05-06T11:43:53.801Z,6.60
2023-05-06T11:46:23.777Z,6.20
2023-05-06T11:48:51.787Z,9.20
2023-05-06T11:51:23.539Z,6.70
2023-05-06T11:53:53.712Z,6.00
2023-05-06T11:56:22.085Z,7.50
2023-05-06T11:58:52.240Z,6.70
2023-05-06T12:01:22.950Z,7.20
2023-05-06T12:03:54.874Z,9.50
2023-05-06T12:06:34.104Z,7.60
2023-05-06T12:09:07.480Z,6.30
2023-05-06T12:11:36.634Z,5.50
2023-05-06T12:14:07.490Z,5.40
2023-05-06T12:16:36.825Z,6.60
2023-05-06T12:19:05.867Z,7.80
2023-05-06T12:21:38.315Z,6.20
2023-05-06T12:24:07.164Z,7.10
2023-05-06T12:26:46.674Z,6.80
2023-05-06T12:29:17.364Z,7.20
2023-05-06T12:31:47.366Z,7.10
2023-05-06T12:34:17.853Z,6.40
2023-05-06T12:36:47.344Z,9.80
2023-05-06T12:39:15.370Z,6.40
2023-05-06T12:41:45.436Z,7.80
2023-05-06T12:44:33.424Z,7.10
2023-05-06T12:47:09.207Z,8.40
2023-05-06T12:49:54.768Z,9.60
2023-05-06T12:52:24.769Z,7.80
2023-05-06T12:54:53.253Z,6.40
2023-05-06T12:57:22.020Z,6.60
2023-05-06T12:59:50.816Z,9.00
2023-05-06T13:02:18.824Z,6.80
2023-05-06T13:04:47.199Z,6.90
2023-05-06T13:07:15.599Z,7.70
2023-05-06T13:09:44.611Z,6.00
2023-05-06T13:12:13.270Z,8.30
2023-05-06T13:14:41.189Z,6.80
2023-05-06T13:17:09.448Z,5.20
2023-05-06T13:19:38.103Z,7.10
2023-05-06T13:22:06.037Z,5.30
2023-05-06T13:24:33.986Z,7.60
2023-05-06T13:27:02.180Z,7.10
2023-05-06T13:29:30.147Z,6.80
2023-05-06T13:31:58.299Z,6.60
2023-05-06T13:34:26.477Z,9.20
2023-05-06T13:36:57.116Z,6.40
2023-05-06T13:39:25.328Z,7.40
2023-05-06T13:41:54.234Z,9.00
2023-05-06T13:44:22.175Z,6.30
2023-05-06T13:46:50.049Z,7.50
2023-05-06T13:49:19.616Z,9.50
2023-05-06T13:51:47.502Z,6.80
2023-05-06T13:54:15.516Z,10.50
2023-05-06T13:56:43.695Z,6.70
2023-05-06T13:59:13.440Z,6.20
2023-05-06T14:01:42.311Z,7.30
2023-05-06T14:04:10.411Z,6.50
2023-05-06T14:06:38.921Z,10.40
2023-05-06T14:09:07.184Z,11.20
2023-05-06T14:11:35.001Z,5.80
2023-05-06T14:14:02.977Z,5.90
2023-05-06T14:16:31.018Z,6.20
2023-05-06T14:19:00.051Z,8.10
2023-05-06T14:21:27.938Z,7.00
2023-05-06T14:23:56.237Z,5.60
2023-05-06T14:26:24.037Z,6.00
2023-05-06T14:28:51.925Z,7.80
2023-05-06T14:31:19.861Z,8.30
2023-05-06T14:33:47.728Z,8.70
2023-05-06T14:36:19.769Z,8.20
2023-05-06T14:38:47.580Z,9.90
2023-05-06T14:41:15.487Z,10.10
2023-05-06T14:43:43.412Z,7.60
2023-05-06T14:46:11.368Z,9.50
2023-05-06T14:48:39.287Z,7.70
2023-05-06T14:51:07.146Z,10.40
2023-05-06T14:53:35.689Z,7.20
2023-05-06T14:56:03.764Z,7.70
2023-05-06T14:58:34.034Z,7.70
2023-05-06T15:01:01.950Z,8.30
2023-05-06T15:03:29.985Z,9.50
2023-05-06T15:05:57.949Z,8.10
2023-05-06T15:08:26.478Z,6.50
2023-05-06T15:10:54.932Z,7.50
2023-05-06T15:13:22.913Z,7.30
2023-05-06T15:15:50.906Z,8.20
2023-05-06T15:18:18.669Z,8.10
2023-05-06T15:20:46.503Z,9.70
2023-05-06T15:23:14.299Z,8.30
2023-05-06T15:25:42.530Z,6.70
2023-05-06T15:28:10.746Z,11.10
2023-05-06T15:30:38.913Z,8.10
2023-05-06T15:33:06.822Z,11.30
2023-05-06T15:35:34.692Z,7.70
2023-05-06T15:38:04.243Z,11.60
2023-05-06T15:40:32.107Z,7.30
2023-05-06T15:42:59.961Z,9.60
2023-05-06T15:45:27.779Z,10.20
2023-05-06T15:47:56.234Z,14.80
2023-05-06T15:50:32.773Z,9.10
2023-05-06T15:53:02.255Z,10.60
2023-05-06T15:55:35.089Z,9.90
2023-05-06T15:58:09.261Z,11.70
2023-05-06T16:00:37.260Z,11.90
2023-05-06T16:03:05.964Z,9.80
2023-05-06T16:05:34.849Z,12.10
2023-05-06T16:08:02.664Z,15.20
2023-05-06T16:10:30.597Z,12.00
2023-05-06T16:12:58.503Z,12.90
2023-05-06T16:15:26.552Z,13.20
2023-05-06T16:17:54.471Z,8.80
2023-05-06T16:20:22.361Z,10.50
2023-05-06T16:22:50.974Z,11.40
2023-05-06T16:25:19.117Z,10.90
2023-05-06T16:27:47.010Z,14.90
2023-05-06T16:30:15.057Z,11.00
2023-05-06T16:32:43.126Z,13.50
2023-05-06T16:35:11.415Z,13.00
2023-05-06T16:37:39.496Z,17.10
2023-05-06T16:40:08.624Z,13.30
2023-05-06T16:42:36.795Z,9.90
2023-05-06T16:45:06.159Z,17.40
2023-05-06T16:47:34.047Z,14.30
2023-05-06T16:50:02.288Z,13.20
2023-05-06T16:52:30.837Z,16.50
2023-05-06T16:54:58.936Z,17.10
2023-05-06T16:57:26.765Z,17.40
2023-05-06T16:59:54.800Z,27.40
2023-05-06T17:02:22.716Z,23.90
2023-05-06T17:04:50.620Z,16.20
2023-05-06T17:07:18.732Z,14.40
2023-05-06T17:09:46.754Z,12.40
2023-05-06T17:12:14.623Z,11.30
2023-05-06T17:14:43.649Z,12.50
2023-05-06T17:17:11.506Z,11.70
2023-05-06T17:19:39.372Z,9.50
2023-05-06T17:22:08.197Z,17.90
2023-05-06T17:24:35.984Z,16.70
2023-05-06T17:27:03.892Z,15.20
2023-05-06T17:29:31.956Z,16.40
2023-05-06T17:31:59.950Z,17.60
2023-05-06T17:34:27.843Z,14.60
2023-05-06T17:36:56.082Z,17.90
2023-05-06T17:39:23.965Z,23.40
2023-05-06T17:41:51.940Z,18.00
2023-05-06T17:44:19.831Z,20.70
2023-05-06T17:46:47.762Z,20.10
2023-05-06T17:49:15.824Z,16.30
2023-05-06T17:51:45.637Z,17.80
2023-05-06T17:54:13.470Z,28.20
2023-05-06T17:56:41.497Z,21.70
2023-05-06T17:59:09.402Z,25.90
2023-05-06T18:01:37.367Z,27.60
2023-05-06T18:04:05.521Z,24.40
2023-05-06T18:06:33.677Z,28.80
2023-05-06T18:09:01.578Z,24.80
2023-05-06T18:11:29.781Z,21.60
2023-05-06T18:13:57.756Z,23.00
2023-05-06T18:16:25.759Z,21.40
2023-05-06T18:18:53.912Z,18.10
2023-05-06T18:21:22.435Z,16.60
2023-05-06T18:23:55.655Z,17.70
2023-05-06T18:26:43.163Z,14.60
2023-05-06T18:29:11.950Z,14.50
2023-05-06T18:31:39.887Z,18.90
2023-05-06T18:34:07.880Z,15.70
2023-05-06T18:36:36.549Z,19.70
2023-05-06T18:39:04.888Z,16.70
2023-05-06T18:41:32.837Z,17.10
2023-05-06T18:44:03.525Z,15.20
2023-05-06T18:46:31.841Z,13.30
2023-05-06T18:49:01.041Z,16.90
2023-05-06T18:51:29.006Z,13.50
2023-05-06T18:53:56.937Z,19.10
2023-05-06T18:56:24.906Z,12.70
2023-05-06T18:58:52.831Z,13.00
2023-05-06T19:01:21.171Z,12.20
2023-05-06T19:03:49.290Z,13.50
2023-05-06T19:06:17.575Z,12.90
2023-05-06T19:08:45.399Z,14.10
2023-05-06T19:11:18.228Z,12.60
2023-05-06T19:13:46.461Z,15.00
2023-05-06T19:16:14.845Z,14.60
2023-05-06T19:18:42.818Z,12.40
2023-05-06T19:21:12.734Z,13.90
2023-05-06T19:23:40.981Z,11.20
2023-05-06T19:26:12.021Z,13.20
2023-05-06T19:28:40.702Z,14.50
2023-05-06T19:31:10.425Z,14.70
2023-05-06T19:33:39.024Z,15.30
2023-05-06T19:36:07.104Z,12.80
2023-05-06T19:38:35.117Z,17.00
2023-05-06T19:41:03.009Z,14.10
2023-05-06T19:43:30.997Z,18.90
2023-05-06T19:45:59.069Z,13.70
2023-05-06T19:48:27.001Z,13.50
2023-05-06T19:50:54.870Z,16.90
2023-05-06T19:53:23.910Z,14.50
2023-05-06T19:55:55.484Z,15.80
2023-05-06T19:58:23.489Z,16.60
2023-05-06T20:00:51.471Z,14.00
2023-05-06T20:03:19.372Z,17.60
2023-05-06T20:05:47.588Z,13.20
2023-05-06T20:08:15.433Z,16.50
2023-05-06T20:10:43.529Z,16.60
2023-05-06T20:13:12.035Z,14.20
2023-05-06T20:15:39.950Z,24.20
2023-05-06T20:18:07.974Z,18.40
2023-05-06T20:20:36.234Z,15.60
2023-05-06T20:23:04.478Z,13.90
2023-05-06T20:25:32.719Z,20.00
2023-05-06T20:28:00.672Z,18.80
2023-05-06T20:30:28.526Z,16.90
2023-05-06T20:32:56.497Z,15.70
2023-05-06T20:35:24.914Z,17.30
2023-05-06T20:37:55.766Z,19.60
2023-05-06T20:40:23.718Z,21.70
2023-05-06T20:42:52.689Z,24.80
2023-05-06T20:45:20.852Z,19.50
2023-05-06T20:47:48.886Z,23.50
2023-05-06T20:50:17.437Z,25.30
2023-05-06T20:52:47.539Z,20.70
2023-05-06T20:55:15.899Z,22.60
2023-05-06T20:57:44.611Z,22.50
2023-05-06T21:00:12.958Z,22.40
2023-05-06T21:02:41.928Z,20.10
2023-05-06T21:05:11.224Z,22.00
2023-05-06T21:07:39.360Z,22.80
2023-05-06T21:10:07.569Z,24.00
2023-05-06T21:12:35.484Z,23.40
2023-05-06T21:15:03.589Z,25.20
2023-05-06T21:17:31.467Z,25.90
2023-05-06T21:19:59.342Z,25.60
2023-05-06T21:22:27.190Z,21.90
2023-05-06T21:24:56.054Z,25.10
2023-05-06T21:27:23.929Z,22.10
2023-05-06T21:29:51.973Z,25.60
2023-05-06T21:32:19.959Z,22.10
2023-05-06T21:34:47.840Z,22.10
2023-05-06T21:37:18.109Z,21.50
2023-05-06T21:39:46.160Z,25.40
2023-05-06T21:42:13.932Z,23.00
2023-05-06T21:44:42.153Z,26.00
2023-05-06T21:47:10.132Z,20.10
2023-05-06T21:49:37.945Z,30.20
2023-05-06T21:52:06.517Z,32.10
2023-05-06T21:54:34.406Z,26.50
2023-05-06T21:57:02.647Z,28.30
2023-05-06T21:59:30.457Z,26.00
2023-05-06T22:01:58.299Z,25.80
2023-05-06T22:04:26.359Z,24.10
2023-05-06T22:06:54.286Z,22.90
2023-05-06T22:09:23.360Z,23.50
2023-05-06T22:11:51.860Z,25.30
2023-05-06T22:14:21.879Z,19.90
2023-05-06T22:16:52.801Z,23.70
2023-05-06T22:19:21.297Z,21.40
2023-05-06T22:21:49.350Z,23.00
2023-05-06T22:24:17.205Z,20.30
2023-05-06T22:26:45.139Z,21.80
2023-05-06T22:29:12.998Z,23.00
2023-05-06T22:31:41.108Z,23.90
2023-05-06T22:34:09.060Z,23.90
2023-05-06T22:36:37.031Z,31.60
2023-05-06T22:39:04.858Z,30.70
2023-05-06T22:41:32.695Z,25.40
2023-05-06T22:44:00.658Z,25.20
2023-05-06T22:46:29.261Z,25.30
2023-05-06T22:48:57.949Z,23.10
2023-05-06T22:51:25.915Z,22.80
2023-05-06T22:53:53.802Z,23.00
2023-05-06T22:56:21.691Z,21.50
2023-05-06T22:58:49.496Z,19.50
2023-05-06T23:01:17.991Z,19.00
2023-05-06T23:03:45.938Z,17.60
2023-05-06T23:06:13.819Z,19.90
2023-05-06T23:08:41.650Z,16.70
2023-05-06T23:11:09.424Z,21.40
2023-05-06T23:13:37.296Z,19.10
2023-05-06T23:16:05.472Z,18.30
2023-05-06T23:18:33.360Z,18.30
2023-05-06T23:21:01.272Z,21.60
2023-05-06T23:23:29.771Z,20.80
2023-05-06T23:25:57.586Z,20.40
2023-05-06T23:28:25.596Z,22.00
2023-05-06T23:30:53.577Z,23.50
2023-05-06T23:33:21.496Z,27.60
2023-05-06T23:35:49.458Z,19.10
2023-05-06T23:38:17.271Z,17.80
2023-05-06T23:40:45.239Z,22.20
2023-05-06T23:43:13.042Z,23.00
2023-05-06T23:45:41.084Z,20.70
2023-05-06T23:48:08.941Z,21.90
2023-05-06T23:50:37.223Z,16.20
2023-05-06T23:53:05.184Z,21.00
2023-05-06T23:55:33.309Z,17.40
2023-05-06T23:58:01.149Z,18.00
